createdAt,value
2023-05-06T00:02:22.384Z,101053.23
2023-05-06T00:05:49.704Z,101049.29
2023-05-06T00:09:17.033Z,101058.80
2023-05-06T00:12:43.998Z,101065.70
2023-05-06T00:16:11.110Z,101063.38
2023-05-06T00:19:38.632Z,101062.27
2023-05-06T00:23:05.478Z,101063.36
2023-05-06T00:26:32.340Z,101056.58
2023-05-06T00:30:01.023Z,101047.36
2023-05-06T00:33:28.954Z,101040.77
2023-05-06T00:36:55.760Z,101042.53
2023-05-06T00:40:23.034Z,101032.41
2023-05-06T00:43:50.177Z,101021.28
2023-05-06T00:47:18.680Z,101025.96
2023-05-06T00:50:46.490Z,101014.45
2023-05-06T00:54:13.475Z,101017.95
2023-05-06T00:57:40.577Z,101012.38
2023-05-06T01:01:08.336Z,101014.35
2023-05-06T01:04:36.042Z,101007.50
2023-05-06T01:08:09.826Z,101003.29
2023-05-06T01:11:44.953Z,101004.46
2023-05-06T01:15:16.700Z,101003.73
2023-05-06T01:18:44.526Z,100998.86
2023-05-06T01:22:12.910Z,100999.70
2023-05-06T01:25:40.409Z,100991.67
2023-05-06T01:29:07.478Z,100995.26
2023-05-06T01:32:47.821Z,100995.93
2023-05-06T01:36:19.886Z,100993.77
2023-05-06T01:39:49.239Z,101003.70
2023-05-06T01:43:18.062Z,100994.41
2023-05-06T01:46:46.323Z,100994.19
2023-05-06T01:50:14.094Z,100993.25
2023-05-06T01:53:41.467Z,100990.77
2023-05-06T01:57:08.442Z,100989.33
2023-05-06T02:00:35.290Z,100994.30
2023-05-06T02:04:02.574Z,100982.27
2023-05-06T02:07:29.362Z,100981.17
2023-05-06T02:10:56.273Z,100979.78
2023-05-06T02:14:23.134Z,100973.31
2023-05-06T02:17:52.598Z,100977.48
2023-05-06T02:21:19.522Z,100969.77
2023-05-06T02:24:46.554Z,100975.86
2023-05-06T02:28:13.449Z,100965.04
2023-05-06T02:31:40.533Z,100972.16
2023-05-06T02:35:10.664Z,100969.17
2023-05-06T02:38:37.803Z,100966.02
2023-05-06T02:42:04.906Z,100970.58
2023-05-06T02:45:31.687Z,100973.02
2023-05-06T02:48:59.288Z,100967.78
2023-05-06T02:52:26.642Z,100969.83
2023-05-06T02:55:53.657Z,100963.70
2023-05-06T02:59:22.755Z,100947.77
2023-05-06T03:02:49.967Z,100954.73
2023-05-06T03:06:17.017Z,100952.46
2023-05-06T03:09:43.842Z,100963.06
2023-05-06T03:13:11.777Z,100967.20
2023-05-06T03:16:39.029Z,100961.61
2023-05-06T03:20:08.242Z,100962.27
2023-05-06T03:23:36.007Z,100964.32
2023-05-06T03:27:02.937Z,100958.90
2023-05-06T03:30:30.245Z,100948.45
2023-05-06T03:33:59.071Z,100959.99
2023-05-06T03:37:26.177Z,100955.80
2023-05-06T03:40:55.979Z,100954.41
2023-05-06T03:44:23.128Z,100954.05
2023-05-06T03:47:51.255Z,100957.18
2023-05-06T03:51:19.466Z,100943.55
2023-05-06T03:54:46.594Z,100946.23
2023-05-06T03:58:13.860Z,100947.26
2023-05-06T04:01:42.440Z,100950.39
2023-05-06T04:05:11.132Z,100952.17
2023-05-06T04:08:38.225Z,100953.45
2023-05-06T04:12:06.998Z,100944.15
2023-05-06T04:15:34.553Z,100953.73
2023-05-06T04:19:05.729Z,100949.52
2023-05-06T04:22:34.338Z,100949.26
2023-05-06T04:26:01.402Z,100957.71
2023-05-06T04:29:29.560Z,100960.55
2023-05-06T04:32:59.933Z,100959.22
2023-05-06T04:36:28.434Z,100960.11
2023-05-06T04:40:09.353Z,100961.86
2023-05-06T04:43:37.125Z,100959.77
2023-05-06T04:47:09.780Z,100956.20
2023-05-06T04:50:38.583Z,100955.89
2023-05-06T04:54:06.011Z,100964.48
2023-05-06T04:57:33.970Z,100966.98
2023-05-06T05:01:04.728Z,100963.55
2023-05-06T05:04:31.565Z,100967.70
2023-05-06T05:07:59.162Z,100965.58
2023-05-06T05:11:26.725Z,100962.79
2023-05-06T05:14:54.441Z,100967.30
2023-05-06T05:18:21.330Z,100966.79
2023-05-06T05:21:50.946Z,100970.46
2023-05-06T05:25:18.512Z,100964.20
2023-05-06T05:28:46.269Z,100965.92
2023-05-06T05:32:13.540Z,100967.63
2023-05-06T05:35:42.140Z,100966.70
2023-05-06T05:39:10.205Z,100965.98
2023-05-06T05:42:41.498Z,100963.35
2023-05-06T05:46:16.903Z,100961.60
2023-05-06T05:49:44.396Z,100960.69
2023-05-06T05:53:12.201Z,100959.43
2023-05-06T05:56:39.609Z,100953.52
2023-05-06T06:00:08.103Z,100953.31
2023-05-06T06:03:44.585Z,100951.23
2023-05-06T06:07:11.825Z,100950.81
2023-05-06T06:10:42.155Z,100948.37
2023-05-06T06:14:16.850Z,100948.55
2023-05-06T06:17:45.648Z,100952.71
2023-05-06T06:21:13.555Z,100948.22
2023-05-06T06:24:41.776Z,100949.84
2023-05-06T06:28:09.019Z,100946.27
2023-05-06T06:31:37.578Z,100946.80
2023-05-06T06:35:07.552Z,100944.48
2023-05-06T06:38:34.791Z,100941.15
2023-05-06T06:42:04.365Z,100938.50
2023-05-06T06:45:38.040Z,100939.99
2023-05-06T06:49:05.187Z,100941.78
2023-05-06T06:52:32.154Z,100943.17
2023-05-06T06:55:59.191Z,100947.17
2023-05-06T06:59:26.248Z,100952.39
2023-05-06T07:02:54.079Z,100948.93
2023-05-06T07:06:21.490Z,100953.19
2023-05-06T07:09:50.288Z,100959.00
2023-05-06T07:13:17.834Z,100960.02
2023-05-06T07:16:46.364Z,100958.80
2023-05-06T07:20:16.219Z,100966.59
2023-05-06T07:23:43.361Z,100968.31
2023-05-06T07:27:10.288Z,100972.14
2023-05-06T07:30:38.552Z,100963.80
2023-05-06T07:34:05.552Z,100963.30
2023-05-06T07:37:32.454Z,100964.61
2023-05-06T07:40:59.320Z,100969.20
2023-05-06T07:44:26.978Z,100969.61
2023-05-06T07:47:54.164Z,100969.27
2023-05-06T07:51:21.309Z,100968.92
2023-05-06T07:54:48.287Z,100974.45
2023-05-06T07:58:15.580Z,100981.67
2023-05-06T08:01:42.605Z,100987.92
2023-05-06T08:05:11.539Z,100991.54
2023-05-06T08:08:39.238Z,100991.77
2023-05-06T08:12:07.315Z,100995.52
2023-05-06T08:15:34.297Z,100992.67
2023-05-06T08:19:01.171Z,100983.02
2023-05-06T08:22:28.222Z,100990.11
2023-05-06T08:25:55.275Z,100985.00
2023-05-06T08:29:22.634Z,100984.98
2023-05-06T08:32:49.558Z,100980.98
2023-05-06T08:36:16.774Z,100986.69
2023-05-06T08:39:45.389Z,100994.45
2023-05-06T08:43:15.716Z,101003.14
2023-05-06T08:46:43.049Z,100999.03
2023-05-06T08:50:12.465Z,100994.20
2023-05-06T08:53:41.232Z,100986.74
2023-05-06T08:57:12.518Z,100991.11
2023-05-06T09:00:40.307Z,100993.70
2023-05-06T09:04:08.462Z,100986.57
2023-05-06T09:07:35.450Z,100994.27
2023-05-06T09:11:03.804Z,100989.73
2023-05-06T09:14:33.893Z,100991.27
2023-05-06T09:18:07.938Z,100982.40
2023-05-06T09:21:42.005Z,100966.64
2023-05-06T09:25:14.481Z,100960.21
2023-05-06T09:28:48.379Z,100963.59
2023-05-06T09:32:21.412Z,100959.34
2023-05-06T09:35:53.298Z,100961.32
2023-05-06T09:39:27.107Z,100960.36
2023-05-06T09:42:56.029Z,100958.38
2023-05-06T09:46:25.953Z,100959.10
2023-05-06T09:50:00.194Z,100957.45
2023-05-06T09:53:33.889Z,100963.08
2023-05-06T09:57:06.133Z,100968.48
2023-05-06T10:00:36.335Z,100966.64
2023-05-06T10:04:13.088Z,100957.52
2023-05-06T10:07:44.353Z,100947.08
2023-05-06T10:11:16.029Z,100949.09
2023-05-06T10:14:47.406Z,100953.23
2023-05-06T10:18:21.158Z,100953.80
2023-05-06T10:21:54.223Z,100946.35
2023-05-06T10:25:30.309Z,100940.95
2023-05-06T10:29:02.289Z,100926.02
2023-05-06T10:32:35.676Z,100924.54
2023-05-06T10:36:16.219Z,100919.95
2023-05-06T10:39:44.869Z,100918.40
2023-05-06T10:43:29.054Z,100912.42
2023-05-06T10:47:04.948Z,100906.29
2023-05-06T10:50:33.948Z,100908.73
2023-05-06T10:54:07.093Z,100907.89
2023-05-06T10:57:47.632Z,100908.05
2023-05-06T11:01:19.100Z,100904.09
2023-05-06T11:04:54.222Z,100900.74
2023-05-06T11:08:26.617Z,100916.31
2023-05-06T11:12:01.833Z,100906.67
2023-05-06T11:15:43.295Z,100923.36
2023-05-06T11:19:19.204Z,100911.58
2023-05-06T11:22:49.092Z,100917.56
2023-05-06T11:26:19.204Z,100918.27
2023-05-06T11:29:49.311Z,100922.98
2023-05-06T11:33:25.552Z,100930.44
2023-05-06T11:37:03.807Z,100935.91
2023-05-06T11:40:33.608Z,100940.92
2023-05-06T11:44:02.406Z,100949.75
2023-05-06T11:47:31.550Z,100957.17
2023-05-06T11:50:59.714Z,100963.05
2023-05-06T11:54:28.455Z,100972.19
2023-05-06T11:57:58.715Z,100977.54
2023-05-06T12:01:26.086Z,100981.95
2023-05-06T12:04:58.212Z,100988.62
2023-05-06T12:08:31.684Z,101001.20
2023-05-06T12:12:00.758Z,101006.58
2023-05-06T12:15:28.385Z,101017.72
2023-05-06T12:18:58.378Z,101022.71
2023-05-06T12:22:26.116Z,101030.43
2023-05-06T12:26:05.058Z,101037.91
2023-05-06T12:29:32.868Z,101045.33
2023-05-06T12:33:03.340Z,101051.05
2023-05-06T12:36:30.881Z,101058.92
2023-05-06T12:39:59.362Z,101054.36
2023-05-06T12:43:32.832Z,101051.52
2023-05-06T12:46:59.826Z,101048.67
2023-05-06T12:50:38.692Z,101049.31
2023-05-06T12:54:25.635Z,101049.58
2023-05-06T12:57:53.318Z,101054.38
2023-05-06T13:01:22.202Z,101057.13
2023-05-06T13:04:50.388Z,101055.27
2023-05-06T13:08:17.575Z,101056.92
2023-05-06T13:11:44.753Z,101061.36
2023-05-06T13:15:13.565Z,101063.05
2023-05-06T13:18:40.845Z,101062.27
2023-05-06T13:22:07.939Z,101070.00
2023-05-06T13:25:37.973Z,101070.68
2023-05-06T13:29:11.989Z,101067.52
2023-05-06T13:32:39.146Z,101060.80
2023-05-06T13:36:07.386Z,101065.88
2023-05-06T13:39:34.236Z,101061.11
2023-05-06T13:43:01.164Z,101057.27
2023-05-06T13:46:28.194Z,101055.16
2023-05-06T13:49:55.132Z,101053.61
2023-05-06T13:53:22.512Z,101049.06
2023-05-06T13:56:49.420Z,101045.58
2023-05-06T14:00:17.970Z,101046.61
2023-05-06T14:03:44.731Z,101053.80
2023-05-06T14:07:11.765Z,101055.89
2023-05-06T14:10:38.851Z,101055.73
2023-05-06T14:14:06.427Z,101057.94
2023-05-06T14:17:33.285Z,101059.40
2023-05-06T14:21:00.614Z,101055.19
2023-05-06T14:24:27.373Z,101049.91
2023-05-06T14:27:54.521Z,101049.75
2023-05-06T14:31:21.620Z,101048.45
2023-05-06T14:34:48.654Z,101058.14
2023-05-06T14:38:15.824Z,101060.60
2023-05-06T14:41:42.782Z,101066.66
2023-05-06T14:45:11.814Z,101063.46
2023-05-06T14:48:39.007Z,101067.88
2023-05-06T14:52:05.963Z,101067.30
2023-05-06T14:55:32.824Z,101066.20
2023-05-06T14:59:01.913Z,101073.80
2023-05-06T15:02:30.960Z,101067.27
2023-05-06T15:05:58.433Z,101070.23
2023-05-06T15:09:25.638Z,101067.74
2023-05-06T15:12:52.581Z,101073.62
2023-05-06T15:16:19.892Z,101070.66
2023-05-06T15:19:46.740Z,101065.72
2023-05-06T15:23:13.533Z,101067.08
2023-05-06T15:26:40.904Z,101064.02
2023-05-06T15:30:13.287Z,101066.98
2023-05-06T15:33:41.879Z,101073.55
2023-05-06T15:37:11.333Z,101081.41
2023-05-06T15:40:43.718Z,101081.91
2023-05-06T15:44:16.659Z,101090.98
2023-05-06T15:47:45.635Z,101093.27
2023-05-06T15:51:15.661Z,101092.12
2023-05-06T15:58:13.261Z,101090.38
2023-05-06T16:05:11.994Z,101082.86
2023-05-06T16:08:40.157Z,101082.14
2023-05-06T16:12:08.293Z,101081.28
2023-05-06T16:15:35.507Z,101082.02
2023-05-06T16:19:02.433Z,101077.20
2023-05-06T16:22:29.424Z,101078.61
2023-05-06T16:25:57.710Z,101083.14
2023-05-06T16:29:24.906Z,101085.35
2023-05-06T16:32:52.167Z,101088.58
2023-05-06T16:36:19.296Z,101089.63
2023-05-06T16:39:46.458Z,101097.52
2023-05-06T16:43:13.428Z,101101.30
2023-05-06T16:46:42.061Z,101110.29
2023-05-06T16:50:12.114Z,101114.21
2023-05-06T16:53:42.217Z,101110.85
2023-05-06T16:57:11.516Z,101114.47
2023-05-06T17:00:41.267Z,101111.66
2023-05-06T17:04:10.993Z,101111.25
2023-05-06T17:07:40.021Z,101114.52
2023-05-06T17:11:08.235Z,101113.66
2023-05-06T17:14:37.798Z,101114.02
2023-05-06T17:18:06.579Z,101110.69
2023-05-06T17:21:34.450Z,101108.95
2023-05-06T17:25:03.978Z,101113.27
2023-05-06T17:28:31.215Z,101120.77
2023-05-06T17:31:59.197Z,101124.91
2023-05-06T17:35:27.976Z,101132.20
2023-05-06T17:39:06.905Z,101132.34
2023-05-06T17:42:34.834Z,101136.63
2023-05-06T17:46:09.792Z,101141.69
2023-05-06T17:49:39.281Z,101143.07
2023-05-06T17:53:07.258Z,101147.95
2023-05-06T17:56:36.935Z,101149.17
2023-05-06T18:00:07.629Z,101151.63
2023-05-06T18:03:41.992Z,101153.70
2023-05-06T18:07:11.630Z,101158.35
2023-05-06T18:10:41.503Z,101161.84
2023-05-06T18:14:09.223Z,101158.73
2023-05-06T18:17:36.645Z,101161.88
2023-05-06T18:21:04.114Z,101168.88
2023-05-06T18:24:31.322Z,101170.46
2023-05-06T18:27:59.135Z,101173.08
2023-05-06T18:31:26.934Z,101175.50
2023-05-06T18:34:54.805Z,101179.64
2023-05-06T18:38:24.639Z,101181.13
2023-05-06T18:41:52.102Z,101183.14
2023-05-06T18:45:19.557Z,101185.84
2023-05-06T18:48:46.609Z,101189.61
2023-05-06T18:52:15.404Z,101194.23
2023-05-06T18:55:42.822Z,101198.52
2023-05-06T18:59:10.537Z,101200.51
2023-05-06T19:02:38.219Z,101198.48
2023-05-06T19:06:08.144Z,101198.27
2023-05-06T19:09:37.250Z,101196.91
2023-05-06T19:13:05.173Z,101200.98
2023-05-06T19:16:32.897Z,101203.39
2023-05-06T19:20:00.269Z,101206.49
2023-05-06T19:23:27.482Z,101208.92
2023-05-06T19:26:54.158Z,101211.01
2023-05-06T19:30:21.583Z,101214.46
2023-05-06T19:33:48.888Z,101210.92
2023-05-06T19:37:15.909Z,101213.17
2023-05-06T19:40:42.747Z,101217.16
2023-05-06T19:44:09.795Z,101217.88
2023-05-06T19:47:36.788Z,101218.45
2023-05-06T19:51:04.120Z,101220.91
2023-05-06T19:54:31.008Z,101220.41
2023-05-06T19:57:59.989Z,101225.13
2023-05-06T20:01:27.203Z,101234.76
2023-05-06T20:04:54.142Z,101235.49
2023-05-06T20:08:21.132Z,101236.87
2023-05-06T20:11:48.296Z,101233.73
2023-05-06T20:15:15.449Z,101233.73
2023-05-06T20:18:42.889Z,101228.33
2023-05-06T20:22:09.647Z,101228.98
2023-05-06T20:25:37.313Z,101231.70
2023-05-06T20:29:04.142Z,101235.48
2023-05-06T20:32:31.887Z,101241.23
2023-05-06T20:35:58.905Z,101242.09
2023-05-06T20:39:26.161Z,101242.58
2023-05-06T20:42:53.203Z,101248.88
2023-05-06T20:46:20.585Z,101250.63
2023-05-06T20:49:47.726Z,101249.36
2023-05-06T20:53:14.847Z,101251.54
2023-05-06T20:56:42.910Z,101246.77
2023-05-06T21:00:12.338Z,101244.99
2023-05-06T21:03:39.544Z,101247.23
2023-05-06T21:07:06.398Z,101246.53
2023-05-06T21:10:33.575Z,101251.52
2023-05-06T21:14:00.492Z,101252.65
2023-05-06T21:17:27.576Z,101252.30
2023-05-06T21:20:54.595Z,101259.06
2023-05-06T21:24:21.723Z,101261.96
2023-05-06T21:27:48.548Z,101262.95
2023-05-06T21:31:15.578Z,101264.00
2023-05-06T21:34:42.801Z,101265.02
2023-05-06T21:38:10.128Z,101266.89
2023-05-06T21:41:37.641Z,101268.27
2023-05-06T21:45:05.092Z,101268.07
2023-05-06T21:48:32.059Z,101265.40
2023-05-06T21:51:59.113Z,101264.67
2023-05-06T21:55:27.829Z,101267.87
2023-05-06T21:58:55.982Z,101265.08
2023-05-06T22:02:23.263Z,101267.82
2023-05-06T22:05:50.216Z,101268.17
2023-05-06T22:09:17.261Z,101267.29
2023-05-06T22:12:44.281Z,101265.70
2023-05-06T22:16:11.660Z,101267.45
2023-05-06T22:19:38.599Z,101267.06
2023-05-06T22:23:06.767Z,101273.27
2023-05-06T22:26:33.783Z,101269.64
2023-05-06T22:30:00.893Z,101270.66
2023-05-06T22:33:28.541Z,101275.15
2023-05-06T22:36:58.046Z,101273.03
2023-05-06T22:40:23.884Z,101275.95
2023-05-06T22:43:50.959Z,101271.37
2023-05-06T22:47:19.748Z,101276.34
2023-05-06T22:50:46.742Z,101279.15
2023-05-06T22:54:13.757Z,101281.57
2023-05-06T22:57:40.855Z,101287.80
2023-05-06T23:01:08.112Z,101288.64
2023-05-06T23:04:35.237Z,101286.20
2023-05-06T23:08:02.190Z,101288.60
2023-05-06T23:11:29.150Z,101285.93
2023-05-06T23:14:56.404Z,101290.75
2023-05-06T23:18:23.371Z,101291.75
2023-05-06T23:21:50.607Z,101293.63
2023-05-06T23:25:18.220Z,101295.33
2023-05-06T23:28:45.116Z,101299.11
2023-05-06T23:32:12.086Z,101301.52
2023-05-06T23:35:39.244Z,101304.99
2023-05-06T23:39:06.381Z,101300.25
2023-05-06T23:42:33.359Z,101299.15
2023-05-06T23:46:00.333Z,101297.55
2023-05-06T23:49:27.341Z,101297.53
2023-05-06T23:52:54.136Z,101300.64
2023-05-06T23:56:21.970Z,101299.02
2023-05-06T23:59:48.935Z,101301.61
